sensor_id;sensor_type;location;lat;lon;timestamp;temperature;humidity
11188;DHT22;5650;52.700;7.306;2023-11-22T00:02:05;3.50;99.90
11188;DHT22;5650;52.700;7.306;2023-11-22T00:04:35;3.50;99.90
11188;DHT22;5650;52.700;7.306;2023-11-22T00:07:02;3.50;99.90
11188;DHT22;5650;52.700;7.306;2023-11-22T00:09:31;3.40;99.90
11188;DHT22;5650;52.700;7.306;2023-11-22T00:12:07;3.40;99.90
11188;DHT22;5650;52.700;7.306;2023-11-22T00:14:37;3.40;99.90
11188;DHT22;5650;52.700;7.306;2023-11-22T00:17:10;3.30;99.90
11188;DHT22;5650;52.700;7.306;2023-11-22T00:19:43;3.30;99.90
11188;DHT22;5650;52.700;7.306;2023-11-22T00:22:12;3.30;99.90
11188;DHT22;5650;52.700;7.306;2023-11-22T00:24:42;3.30;99.90
11188;DHT22;5650;52.700;7.306;2023-11-22T00:27:14;3.30;99.90
11188;DHT22;5650;52.700;7.306;2023-11-22T00:29:42;3.30;99.90
11188;DHT22;5650;52.700;7.306;2023-11-22T00:32:12;3.30;99.90
11188;DHT22;5650;52.700;7.306;2023-11-22T00:34:39;3.20;99.90
11188;DHT22;5650;52.700;7.306;2023-11-22T00:37:15;3.20;99.90
11188;DHT22;5650;52.700;7.306;2023-11-22T00:39:46;3.20;99.90
11188;DHT22;5650;52.700;7.306;2023-11-22T00:42:16;3.10;99.90
11188;DHT22;5650;52.700;7.306;2023-11-22T00:44:45;3.20;99.90
11188;DHT22;5650;52.700;7.306;2023-11-22T00:47:12;3.10;99.90
11188;DHT22;5650;52.700;7.306;2023-11-22T00:49:42;3.10;99.90
11188;DHT22;5650;52.700;7.306;2023-11-22T00:52:09;3.10;99.90
11188;DHT22;5650;52.700;7.306;2023-11-22T00:54:39;3.10;99.90
11188;DHT22;5650;52.700;7.306;2023-11-22T00:57:11;3.10;99.90
11188;DHT22;5650;52.700;7.306;2023-11-22T00:59:38;3.10;99.90
11188;DHT22;5650;52.700;7.306;2023-11-22T01:02:08;3.10;99.90
11188;DHT22;5650;52.700;7.306;2023-11-22T01:04:43;3.10;99.90
11188;DHT22;5650;52.700;7.306;2023-11-22T01:07:11;3.10;99.90
11188;DHT22;5650;52.700;7.306;2023-11-22T01:09:38;3.00;99.90
11188;DHT22;5650;52.700;7.306;2023-11-22T01:12:06;3.00;99.90
11188;DHT22;5650;52.700;7.306;2023-11-22T01:14:36;3.00;99.90
11188;DHT22;5650;52.700;7.306;2023-11-22T01:17:06;2.90;99.90
11188;DHT22;5650;52.700;7.306;2023-11-22T01:19:34;2.90;99.90
11188;DHT22;5650;52.700;7.306;2023-11-22T01:22:01;2.90;99.90
11188;DHT22;5650;52.700;7.306;2023-11-22T01:24:30;2.80;99.90
11188;DHT22;5650;52.700;7.306;2023-11-22T01:27:00;2.80;99.90
11188;DHT22;5650;52.700;7.306;2023-11-22T01:29:33;2.80;99.90
11188;DHT22;5650;52.700;7.306;2023-11-22T01:32:05;2.80;99.90
11188;DHT22;5650;52.700;7.306;2023-11-22T01:34:32;2.80;99.90
11188;DHT22;5650;52.700;7.306;2023-11-22T01:37:02;2.80;99.90
11188;DHT22;5650;52.700;7.306;2023-11-22T01:39:30;2.80;99.90
11188;DHT22;5650;52.700;7.306;2023-11-22T01:41:58;2.80;99.90
11188;DHT22;5650;52.700;7.306;2023-11-22T01:44:28;2.80;99.90
11188;DHT22;5650;52.700;7.306;2023-11-22T01:46:58;2.80;99.90
11188;DHT22;5650;52.700;7.306;2023-11-22T01:49:27;2.80;99.90
11188;DHT22;5650;52.700;7.306;2023-11-22T01:52:01;2.80;99.90
11188;DHT22;5650;52.700;7.306;2023-11-22T01:54:28;2.80;99.90
11188;DHT22;5650;52.700;7.306;2023-11-22T01:56:56;2.70;99.90
11188;DHT22;5650;52.700;7.306;2023-11-22T01:59:32;2.70;99.90
11188;DHT22;5650;52.700;7.306;2023-11-22T02:02:06;2.70;99.90
11188;DHT22;5650;52.700;7.306;2023-11-22T02:04:34;2.70;99.90
11188;DHT22;5650;52.700;7.306;2023-11-22T02:07:04;2.60;99.90
11188;DHT22;5650;52.700;7.306;2023-11-22T02:09:32;2.60;99.90
11188;DHT22;5650;52.700;7.306;2023-11-22T02:11:59;2.60;99.90
11188;DHT22;5650;52.700;7.306;2023-11-22T02:14:31;2.60;99.90
11188;DHT22;5650;52.700;7.306;2023-11-22T02:16:58;2.60;99.90
11188;DHT22;5650;52.700;7.306;2023-11-22T02:19:26;2.50;99.90
11188;DHT22;5650;52.700;7.306;2023-11-22T02:21:57;2.50;99.90
11188;DHT22;5650;52.700;7.306;2023-11-22T02:24:26;2.50;99.90
11188;DHT22;5650;52.700;7.306;2023-11-22T02:26:56;2.50;99.90
11188;DHT22;5650;52.700;7.306;2023-11-22T02:29:32;2.40;99.90
11188;DHT22;5650;52.700;7.306;2023-11-22T02:31:59;2.40;99.90
11188;DHT22;5650;52.700;7.306;2023-11-22T02:34:27;2.40;99.90
11188;DHT22;5650;52.700;7.306;2023-11-22T02:36:56;2.40;99.90
11188;DHT22;5650;52.700;7.306;2023-11-22T02:39:35;2.40;99.90
11188;DHT22;5650;52.700;7.306;2023-11-22T02:42:04;2.40;99.90
11188;DHT22;5650;52.700;7.306;2023-11-22T02:44:31;2.40;99.90
11188;DHT22;5650;52.700;7.306;2023-11-22T02:47:01;2.30;99.90
11188;DHT22;5650;52.700;7.306;2023-11-22T02:49:32;2.30;99.90
11188;DHT22;5650;52.700;7.306;2023-11-22T02:51:59;2.30;99.90
11188;DHT22;5650;52.700;7.306;2023-11-22T02:54:34;2.20;99.90
11188;DHT22;5650;52.700;7.306;2023-11-22T02:57:01;2.20;99.90
11188;DHT22;5650;52.700;7.306;2023-11-22T02:59:36;2.20;99.90
11188;DHT22;5650;52.700;7.306;2023-11-22T03:02:03;2.20;99.90
11188;DHT22;5650;52.700;7.306;2023-11-22T03:04:33;2.20;99.90
11188;DHT22;5650;52.700;7.306;2023-11-22T03:07:04;2.10;99.90
11188;DHT22;5650;52.700;7.306;2023-11-22T03:09:32;2.10;99.90
11188;DHT22;5650;52.700;7.306;2023-11-22T03:12:04;2.10;99.90
11188;DHT22;5650;52.700;7.306;2023-11-22T03:14:32;2.10;99.90
11188;DHT22;5650;52.700;7.306;2023-11-22T03:16:59;2.10;99.90
11188;DHT22;5650;52.700;7.306;2023-11-22T03:19:26;2.10;99.90
11188;DHT22;5650;52.700;7.306;2023-11-22T03:21:57;2.00;99.90
11188;DHT22;5650;52.700;7.306;2023-11-22T03:24:27;2.00;99.90
11188;DHT22;5650;52.700;7.306;2023-11-22T03:26:56;2.00;99.90
11188;DHT22;5650;52.700;7.306;2023-11-22T03:29:26;2.00;99.90
11188;DHT22;5650;52.700;7.306;2023-11-22T03:31:56;2.00;99.90
11188;DHT22;5650;52.700;7.306;2023-11-22T03:34:23;1.90;99.90
11188;DHT22;5650;52.700;7.306;2023-11-22T03:37:02;1.90;99.90
11188;DHT22;5650;52.700;7.306;2023-11-22T03:39:32;1.90;99.90
11188;DHT22;5650;52.700;7.306;2023-11-22T03:41:59;1.90;99.90
11188;DHT22;5650;52.700;7.306;2023-11-22T03:44:31;1.80;99.90
11188;DHT22;5650;52.700;7.306;2023-11-22T03:46:59;1.80;99.90
11188;DHT22;5650;52.700;7.306;2023-11-22T03:49:32;1.80;99.90
11188;DHT22;5650;52.700;7.306;2023-11-22T03:51:59;1.80;99.90
11188;DHT22;5650;52.700;7.306;2023-11-22T03:54:26;1.80;99.90
11188;DHT22;5650;52.700;7.306;2023-11-22T03:56:57;1.80;99.90
11188;DHT22;5650;52.700;7.306;2023-11-22T03:59:31;1.80;99.90
11188;DHT22;5650;52.700;7.306;2023-11-22T04:02:01;1.80;99.90
11188;DHT22;5650;52.700;7.306;2023-11-22T04:04:34;1.80;99.90
11188;DHT22;5650;52.700;7.306;2023-11-22T04:07:05;1.80;99.90
11188;DHT22;5650;52.700;7.306;2023-11-22T04:09:32;1.80;99.90
11188;DHT22;5650;52.700;7.306;2023-11-22T04:11:59;1.80;99.90
11188;DHT22;5650;52.700;7.306;2023-11-22T04:14:31;1.90;99.90
11188;DHT22;5650;52.700;7.306;2023-11-22T04:16:58;1.90;99.90
11188;DHT22;5650;52.700;7.306;2023-11-22T04:19:25;1.90;99.90
11188;DHT22;5650;52.700;7.306;2023-11-22T04:21:52;1.90;99.90
11188;DHT22;5650;52.700;7.306;2023-11-22T04:24:22;2.00;99.90
11188;DHT22;5650;52.700;7.306;2023-11-22T04:26:50;2.00;99.90
11188;DHT22;5650;52.700;7.306;2023-11-22T04:32:23;2.00;99.90
11188;DHT22;5650;52.700;7.306;2023-11-22T04:34:50;2.00;99.90
11188;DHT22;5650;52.700;7.306;2023-11-22T04:37:17;2.00;99.90
11188;DHT22;5650;52.700;7.306;2023-11-22T04:42:56;2.10;99.90
11188;DHT22;5650;52.700;7.306;2023-11-22T04:45:26;2.00;99.90
11188;DHT22;5650;52.700;7.306;2023-11-22T04:47:55;2.00;99.90
11188;DHT22;5650;52.700;7.306;2023-11-22T04:50:23;2.00;99.90
11188;DHT22;5650;52.700;7.306;2023-11-22T04:52:50;2.00;99.90
11188;DHT22;5650;52.700;7.306;2023-11-22T04:55:18;2.00;99.90
11188;DHT22;5650;52.700;7.306;2023-11-22T04:57:45;1.90;99.90
11188;DHT22;5650;52.700;7.306;2023-11-22T05:00:15;1.90;99.90
11188;DHT22;5650;52.700;7.306;2023-11-22T05:02:43;1.90;99.90
11188;DHT22;5650;52.700;7.306;2023-11-22T05:05:11;1.80;99.90
11188;DHT22;5650;52.700;7.306;2023-11-22T05:07:42;1.80;99.90
11188;DHT22;5650;52.700;7.306;2023-11-22T05:10:12;1.80;99.90
11188;DHT22;5650;52.700;7.306;2023-11-22T05:12:39;1.70;99.90
11188;DHT22;5650;52.700;7.306;2023-11-22T05:15:07;1.70;99.90
11188;DHT22;5650;52.700;7.306;2023-11-22T05:17:43;1.70;99.90
11188;DHT22;5650;52.700;7.306;2023-11-22T05:20:19;1.70;99.90
11188;DHT22;5650;52.700;7.306;2023-11-22T05:22:46;1.70;99.90
11188;DHT22;5650;52.700;7.306;2023-11-22T05:25:13;1.70;99.90
11188;DHT22;5650;52.700;7.306;2023-11-22T05:27:43;1.70;99.90
11188;DHT22;5650;52.700;7.306;2023-11-22T05:30:11;1.60;99.90
11188;DHT22;5650;52.700;7.306;2023-11-22T05:32:38;1.60;99.90
11188;DHT22;5650;52.700;7.306;2023-11-22T05:35:06;1.60;99.90
11188;DHT22;5650;52.700;7.306;2023-11-22T05:37:37;1.60;99.90
11188;DHT22;5650;52.700;7.306;2023-11-22T05:40:05;1.60;99.90
11188;DHT22;5650;52.700;7.306;2023-11-22T05:42:37;1.60;99.90
11188;DHT22;5650;52.700;7.306;2023-11-22T05:45:06;1.60;99.90
11188;DHT22;5650;52.700;7.306;2023-11-22T05:47:34;1.60;99.90
11188;DHT22;5650;52.700;7.306;2023-11-22T05:50:01;1.60;99.90
11188;DHT22;5650;52.700;7.306;2023-11-22T05:52:30;1.60;99.90
11188;DHT22;5650;52.700;7.306;2023-11-22T05:55:02;1.50;99.90
11188;DHT22;5650;52.700;7.306;2023-11-22T05:57:33;1.60;99.90
11188;DHT22;5650;52.700;7.306;2023-11-22T06:00:03;1.50;99.90
11188;DHT22;5650;52.700;7.306;2023-11-22T06:02:31;1.50;99.90
11188;DHT22;5650;52.700;7.306;2023-11-22T06:05:01;1.50;99.90
11188;DHT22;5650;52.700;7.306;2023-11-22T06:07:28;1.50;99.90
11188;DHT22;5650;52.700;7.306;2023-11-22T06:09:58;1.50;99.90
11188;DHT22;5650;52.700;7.306;2023-11-22T06:12:26;1.50;99.90
11188;DHT22;5650;52.700;7.306;2023-11-22T06:14:54;1.40;99.90
11188;DHT22;5650;52.700;7.306;2023-11-22T06:17:21;1.40;99.90
11188;DHT22;5650;52.700;7.306;2023-11-22T06:19:51;1.50;99.90
11188;DHT22;5650;52.700;7.306;2023-11-22T06:22:18;1.40;99.90
11188;DHT22;5650;52.700;7.306;2023-11-22T06:24:47;1.40;99.90
11188;DHT22;5650;52.700;7.306;2023-11-22T06:27:16;1.40;99.90
11188;DHT22;5650;52.700;7.306;2023-11-22T06:29:45;1.40;99.90
11188;DHT22;5650;52.700;7.306;2023-11-22T06:32:12;1.40;99.90
11188;DHT22;5650;52.700;7.306;2023-11-22T06:34:46;1.50;99.90
11188;DHT22;5650;52.700;7.306;2023-11-22T06:37:13;1.50;99.90
11188;DHT22;5650;52.700;7.306;2023-11-22T06:39:43;1.50;99.90
11188;DHT22;5650;52.700;7.306;2023-11-22T06:42:10;1.50;99.90
11188;DHT22;5650;52.700;7.306;2023-11-22T06:44:39;1.60;99.90
11188;DHT22;5650;52.700;7.306;2023-11-22T06:47:11;1.60;99.90
11188;DHT22;5650;52.700;7.306;2023-11-22T06:49:38;1.60;99.90
11188;DHT22;5650;52.700;7.306;2023-11-22T06:52:12;1.60;99.90
11188;DHT22;5650;52.700;7.306;2023-11-22T06:54:45;1.60;99.90
11188;DHT22;5650;52.700;7.306;2023-11-22T06:57:12;1.70;99.90
11188;DHT22;5650;52.700;7.306;2023-11-22T06:59:39;1.70;99.90
11188;DHT22;5650;52.700;7.306;2023-11-22T07:02:14;1.70;99.90
11188;DHT22;5650;52.700;7.306;2023-11-22T07:04:47;1.70;99.90
11188;DHT22;5650;52.700;7.306;2023-11-22T07:07:14;1.70;99.90
11188;DHT22;5650;52.700;7.306;2023-11-22T07:09:42;1.80;99.90
11188;DHT22;5650;52.700;7.306;2023-11-22T07:12:19;1.80;99.90
11188;DHT22;5650;52.700;7.306;2023-11-22T07:14:46;1.80;99.90
11188;DHT22;5650;52.700;7.306;2023-11-22T07:17:17;1.80;99.90
11188;DHT22;5650;52.700;7.306;2023-11-22T07:19:44;1.80;99.90
11188;DHT22;5650;52.700;7.306;2023-11-22T07:22:12;1.80;99.90
11188;DHT22;5650;52.700;7.306;2023-11-22T07:24:46;1.70;99.90
11188;DHT22;5650;52.700;7.306;2023-11-22T07:27:19;1.70;99.90
11188;DHT22;5650;52.700;7.306;2023-11-22T07:29:48;1.70;99.90
11188;DHT22;5650;52.700;7.306;2023-11-22T07:32:25;1.70;99.90
11188;DHT22;5650;52.700;7.306;2023-11-22T07:34:56;1.70;99.90
11188;DHT22;5650;52.700;7.306;2023-11-22T07:37:28;1.70;99.90
11188;DHT22;5650;52.700;7.306;2023-11-22T07:39:58;1.70;99.90
11188;DHT22;5650;52.700;7.306;2023-11-22T07:42:29;1.70;99.90
11188;DHT22;5650;52.700;7.306;2023-11-22T07:44:59;1.70;99.90
11188;DHT22;5650;52.700;7.306;2023-11-22T07:47:28;1.80;99.90
11188;DHT22;5650;52.700;7.306;2023-11-22T07:49:56;1.80;99.90
11188;DHT22;5650;52.700;7.306;2023-11-22T07:52:26;1.80;99.90
11188;DHT22;5650;52.700;7.306;2023-11-22T07:54:58;1.80;99.90
11188;DHT22;5650;52.700;7.306;2023-11-22T07:57:28;1.80;99.90
11188;DHT22;5650;52.700;7.306;2023-11-22T07:59:55;1.80;99.90
11188;DHT22;5650;52.700;7.306;2023-11-22T08:02:25;1.90;99.90
11188;DHT22;5650;52.700;7.306;2023-11-22T08:04:54;1.90;99.90
11188;DHT22;5650;52.700;7.306;2023-11-22T08:07:21;1.90;99.90
11188;DHT22;5650;52.700;7.306;2023-11-22T08:09:48;1.90;99.90
11188;DHT22;5650;52.700;7.306;2023-11-22T08:12:15;2.00;99.90
11188;DHT22;5650;52.700;7.306;2023-11-22T08:14:46;2.10;99.90
11188;DHT22;5650;52.700;7.306;2023-11-22T08:17:13;2.10;99.90
11188;DHT22;5650;52.700;7.306;2023-11-22T08:19:40;2.20;99.90
11188;DHT22;5650;52.700;7.306;2023-11-22T08:22:12;2.20;99.90
11188;DHT22;5650;52.700;7.306;2023-11-22T08:24:39;2.30;99.90
11188;DHT22;5650;52.700;7.306;2023-11-22T08:27:06;2.30;99.90
11188;DHT22;5650;52.700;7.306;2023-11-22T08:29:34;2.40;99.90
11188;DHT22;5650;52.700;7.306;2023-11-22T08:32:02;2.40;99.90
11188;DHT22;5650;52.700;7.306;2023-11-22T08:34:30;2.50;99.90
11188;DHT22;5650;52.700;7.306;2023-11-22T08:37:08;2.50;99.90
11188;DHT22;5650;52.700;7.306;2023-11-22T08:39:44;2.60;99.90
11188;DHT22;5650;52.700;7.306;2023-11-22T08:42:13;2.70;99.90
11188;DHT22;5650;52.700;7.306;2023-11-22T08:44:41;2.70;99.90
11188;DHT22;5650;52.700;7.306;2023-11-22T08:47:17;2.80;99.90
11188;DHT22;5650;52.700;7.306;2023-11-22T08:49:44;2.90;99.90
11188;DHT22;5650;52.700;7.306;2023-11-22T08:52:16;2.90;99.90
11188;DHT22;5650;52.700;7.306;2023-11-22T08:54:47;2.90;99.90
11188;DHT22;5650;52.700;7.306;2023-11-22T08:57:14;2.90;99.90
11188;DHT22;5650;52.700;7.306;2023-11-22T08:59:41;3.00;99.90
11188;DHT22;5650;52.700;7.306;2023-11-22T09:02:08;3.00;99.90
11188;DHT22;5650;52.700;7.306;2023-11-22T09:04:38;3.10;99.90
11188;DHT22;5650;52.700;7.306;2023-11-22T09:07:07;3.10;99.90
11188;DHT22;5650;52.700;7.306;2023-11-22T09:09:36;3.20;99.90
11188;DHT22;5650;52.700;7.306;2023-11-22T09:12:06;3.20;99.90
11188;DHT22;5650;52.700;7.306;2023-11-22T09:14:41;3.30;99.90
11188;DHT22;5650;52.700;7.306;2023-11-22T09:17:14;3.30;99.90
11188;DHT22;5650;52.700;7.306;2023-11-22T09:19:44;3.40;99.90
11188;DHT22;5650;52.700;7.306;2023-11-22T09:22:12;3.50;99.90
11188;DHT22;5650;52.700;7.306;2023-11-22T09:24:40;3.50;99.90
11188;DHT22;5650;52.700;7.306;2023-11-22T09:27:12;3.50;99.90
11188;DHT22;5650;52.700;7.306;2023-11-22T09:29:46;3.60;99.90
11188;DHT22;5650;52.700;7.306;2023-11-22T09:32:19;3.60;99.90
11188;DHT22;5650;52.700;7.306;2023-11-22T09:34:47;3.60;99.90
11188;DHT22;5650;52.700;7.306;2023-11-22T09:37:17;3.70;99.90
11188;DHT22;5650;52.700;7.306;2023-11-22T09:39:44;3.70;99.90
11188;DHT22;5650;52.700;7.306;2023-11-22T09:42:13;3.70;99.90
11188;DHT22;5650;52.700;7.306;2023-11-22T09:44:42;3.80;99.90
11188;DHT22;5650;52.700;7.306;2023-11-22T09:47:16;3.80;99.90
11188;DHT22;5650;52.700;7.306;2023-11-22T09:49:47;3.90;99.90
11188;DHT22;5650;52.700;7.306;2023-11-22T09:52:19;3.90;99.90
11188;DHT22;5650;52.700;7.306;2023-11-22T09:54:48;3.90;99.90
11188;DHT22;5650;52.700;7.306;2023-11-22T09:57:22;3.90;99.90
11188;DHT22;5650;52.700;7.306;2023-11-22T09:59:51;4.00;99.90
11188;DHT22;5650;52.700;7.306;2023-11-22T10:02:20;4.00;99.90
11188;DHT22;5650;52.700;7.306;2023-11-22T10:04:52;4.10;99.90
11188;DHT22;5650;52.700;7.306;2023-11-22T10:07:20;4.20;99.90
11188;DHT22;5650;52.700;7.306;2023-11-22T10:09:48;4.20;99.90
11188;DHT22;5650;52.700;7.306;2023-11-22T10:12:21;4.40;99.90
11188;DHT22;5650;52.700;7.306;2023-11-22T10:14:48;4.40;99.90
11188;DHT22;5650;52.700;7.306;2023-11-22T10:17:15;4.40;99.90
11188;DHT22;5650;52.700;7.306;2023-11-22T10:19:46;4.40;99.90
11188;DHT22;5650;52.700;7.306;2023-11-22T10:22:16;4.40;99.90
11188;DHT22;5650;52.700;7.306;2023-11-22T10:24:44;4.40;99.90
11188;DHT22;5650;52.700;7.306;2023-11-22T10:27:17;4.40;99.90
11188;DHT22;5650;52.700;7.306;2023-11-22T10:29:47;4.40;99.90
11188;DHT22;5650;52.700;7.306;2023-11-22T10:32:16;4.40;99.90
11188;DHT22;5650;52.700;7.306;2023-11-22T10:34:44;4.50;99.90
11188;DHT22;5650;52.700;7.306;2023-11-22T10:37:12;4.50;99.90
11188;DHT22;5650;52.700;7.306;2023-11-22T10:39:39;4.50;99.90
11188;DHT22;5650;52.700;7.306;2023-11-22T10:42:08;4.60;99.90
11188;DHT22;5650;52.700;7.306;2023-11-22T10:44:43;4.60;99.90
11188;DHT22;5650;52.700;7.306;2023-11-22T10:47:15;4.70;99.90
11188;DHT22;5650;52.700;7.306;2023-11-22T10:49:43;4.70;99.90
11188;DHT22;5650;52.700;7.306;2023-11-22T10:52:13;4.80;99.90
11188;DHT22;5650;52.700;7.306;2023-11-22T10:54:44;4.90;99.90
11188;DHT22;5650;52.700;7.306;2023-11-22T10:57:19;4.90;99.90
11188;DHT22;5650;52.700;7.306;2023-11-22T10:59:54;5.00;99.90
11188;DHT22;5650;52.700;7.306;2023-11-22T11:02:24;5.10;99.90
11188;DHT22;5650;52.700;7.306;2023-11-22T11:05:03;5.20;99.90
11188;DHT22;5650;52.700;7.306;2023-11-22T11:07:49;5.20;99.90
11188;DHT22;5650;52.700;7.306;2023-11-22T11:10:20;5.30;99.90
11188;DHT22;5650;52.700;7.306;2023-11-22T11:12:48;5.30;99.90
11188;DHT22;5650;52.700;7.306;2023-11-22T11:15:16;5.30;99.90
11188;DHT22;5650;52.700;7.306;2023-11-22T11:17:46;5.30;99.90
11188;DHT22;5650;52.700;7.306;2023-11-22T11:20:18;5.20;99.90
11188;DHT22;5650;52.700;7.306;2023-11-22T11:22:48;5.20;99.90
11188;DHT22;5650;52.700;7.306;2023-11-22T11:25:18;5.10;99.90
11188;DHT22;5650;52.700;7.306;2023-11-22T11:27:58;5.10;99.90
11188;DHT22;5650;52.700;7.306;2023-11-22T11:30:45;5.00;99.90
11188;DHT22;5650;52.700;7.306;2023-11-22T11:33:26;5.00;99.90
11188;DHT22;5650;52.700;7.306;2023-11-22T11:35:57;5.00;99.90
11188;DHT22;5650;52.700;7.306;2023-11-22T11:38:30;5.10;99.90
11188;DHT22;5650;52.700;7.306;2023-11-22T11:41:06;5.20;99.90
11188;DHT22;5650;52.700;7.306;2023-11-22T11:43:44;5.20;99.90
11188;DHT22;5650;52.700;7.306;2023-11-22T11:46:15;5.30;99.90
11188;DHT22;5650;52.700;7.306;2023-11-22T11:48:45;5.50;99.90
11188;DHT22;5650;52.700;7.306;2023-11-22T11:51:15;5.50;99.90
11188;DHT22;5650;52.700;7.306;2023-11-22T11:56:47;5.50;99.90
11188;DHT22;5650;52.700;7.306;2023-11-22T11:59:20;5.60;99.90
11188;DHT22;5650;52.700;7.306;2023-11-22T12:01:52;5.60;99.90
11188;DHT22;5650;52.700;7.306;2023-11-22T12:04:31;5.60;99.90
11188;DHT22;5650;52.700;7.306;2023-11-22T12:06:58;5.70;99.90
11188;DHT22;5650;52.700;7.306;2023-11-22T12:09:26;5.80;99.90
11188;DHT22;5650;52.700;7.306;2023-11-22T12:12:00;5.90;99.90
11188;DHT22;5650;52.700;7.306;2023-11-22T12:14:32;5.90;99.90
11188;DHT22;5650;52.700;7.306;2023-11-22T12:17:05;5.90;99.90
11188;DHT22;5650;52.700;7.306;2023-11-22T12:19:35;5.90;99.90
11188;DHT22;5650;52.700;7.306;2023-11-22T12:22:02;5.90;99.90
11188;DHT22;5650;52.700;7.306;2023-11-22T12:24:30;5.90;99.90
11188;DHT22;5650;52.700;7.306;2023-11-22T12:27:03;5.90;99.90
11188;DHT22;5650;52.700;7.306;2023-11-22T12:29:36;5.80;99.90
11188;DHT22;5650;52.700;7.306;2023-11-22T12:32:04;5.80;99.90
11188;DHT22;5650;52.700;7.306;2023-11-22T12:34:34;5.90;99.90
11188;DHT22;5650;52.700;7.306;2023-11-22T12:37:04;5.90;99.90
11188;DHT22;5650;52.700;7.306;2023-11-22T12:39:36;6.00;99.90
11188;DHT22;5650;52.700;7.306;2023-11-22T12:42:03;6.00;99.90
11188;DHT22;5650;52.700;7.306;2023-11-22T12:44:49;6.00;99.90
11188;DHT22;5650;52.700;7.306;2023-11-22T12:47:31;6.00;99.90
11188;DHT22;5650;52.700;7.306;2023-11-22T12:50:06;6.10;99.90
11188;DHT22;5650;52.700;7.306;2023-11-22T12:52:36;6.10;99.90
11188;DHT22;5650;52.700;7.306;2023-11-22T12:55:06;6.10;99.90
11188;DHT22;5650;52.700;7.306;2023-11-22T12:57:34;6.10;99.90
11188;DHT22;5650;52.700;7.306;2023-11-22T13:00:04;6.00;99.90
11188;DHT22;5650;52.700;7.306;2023-11-22T13:02:41;6.00;99.90
11188;DHT22;5650;52.700;7.306;2023-11-22T13:05:16;6.00;99.90
11188;DHT22;5650;52.700;7.306;2023-11-22T13:07:44;5.90;99.90
11188;DHT22;5650;52.700;7.306;2023-11-22T13:10:11;5.90;99.90
11188;DHT22;5650;52.700;7.306;2023-11-22T13:12:42;5.90;99.90
11188;DHT22;5650;52.700;7.306;2023-11-22T13:15:10;5.90;99.90
11188;DHT22;5650;52.700;7.306;2023-11-22T13:17:37;5.80;99.90
11188;DHT22;5650;52.700;7.306;2023-11-22T13:20:06;5.80;99.90
11188;DHT22;5650;52.700;7.306;2023-11-22T13:22:41;5.70;99.90
11188;DHT22;5650;52.700;7.306;2023-11-22T13:25:11;5.70;99.90
11188;DHT22;5650;52.700;7.306;2023-11-22T13:27:39;5.70;99.90
11188;DHT22;5650;52.700;7.306;2023-11-22T13:30:07;5.60;99.90
11188;DHT22;5650;52.700;7.306;2023-11-22T13:32:36;5.60;99.90
11188;DHT22;5650;52.700;7.306;2023-11-22T13:35:05;5.60;99.90
11188;DHT22;5650;52.700;7.306;2023-11-22T13:37:39;5.60;99.90
11188;DHT22;5650;52.700;7.306;2023-11-22T13:40:11;5.60;99.90
11188;DHT22;5650;52.700;7.306;2023-11-22T13:42:42;5.60;99.90
11188;DHT22;5650;52.700;7.306;2023-11-22T13:45:14;5.60;99.90
11188;DHT22;5650;52.700;7.306;2023-11-22T13:47:46;5.60;99.90
11188;DHT22;5650;52.700;7.306;2023-11-22T13:50:14;5.60;99.90
11188;DHT22;5650;52.700;7.306;2023-11-22T13:52:46;5.60;99.90
11188;DHT22;5650;52.700;7.306;2023-11-22T13:55:14;5.60;99.90
11188;DHT22;5650;52.700;7.306;2023-11-22T13:57:43;5.50;99.90
11188;DHT22;5650;52.700;7.306;2023-11-22T14:00:11;5.50;99.90
11188;DHT22;5650;52.700;7.306;2023-11-22T14:02:44;5.50;99.90
11188;DHT22;5650;52.700;7.306;2023-11-22T14:05:11;5.50;99.90
11188;DHT22;5650;52.700;7.306;2023-11-22T14:07:39;5.50;99.90
11188;DHT22;5650;52.700;7.306;2023-11-22T14:10:08;5.50;99.90
11188;DHT22;5650;52.700;7.306;2023-11-22T14:12:39;5.50;99.90
11188;DHT22;5650;52.700;7.306;2023-11-22T14:15:12;5.50;99.90
11188;DHT22;5650;52.700;7.306;2023-11-22T14:17:40;5.50;99.90
11188;DHT22;5650;52.700;7.306;2023-11-22T14:20:11;5.50;99.90
11188;DHT22;5650;52.700;7.306;2023-11-22T14:22:39;5.50;99.90
11188;DHT22;5650;52.700;7.306;2023-11-22T14:25:10;5.50;99.90
11188;DHT22;5650;52.700;7.306;2023-11-22T14:27:39;5.50;99.90
11188;DHT22;5650;52.700;7.306;2023-11-22T14:30:07;5.50;99.90
11188;DHT22;5650;52.700;7.306;2023-11-22T14:32:36;5.50;99.90
11188;DHT22;5650;52.700;7.306;2023-11-22T14:35:03;5.50;99.90
11188;DHT22;5650;52.700;7.306;2023-11-22T14:37:37;5.50;99.90
11188;DHT22;5650;52.700;7.306;2023-11-22T14:40:06;5.40;99.90
11188;DHT22;5650;52.700;7.306;2023-11-22T14:42:41;5.40;99.90
11188;DHT22;5650;52.700;7.306;2023-11-22T14:45:09;5.40;99.90
11188;DHT22;5650;52.700;7.306;2023-11-22T14:47:39;5.40;99.90
11188;DHT22;5650;52.700;7.306;2023-11-22T14:50:10;5.40;99.90
11188;DHT22;5650;52.700;7.306;2023-11-22T14:52:40;5.40;99.90
11188;DHT22;5650;52.700;7.306;2023-11-22T14:55:09;5.40;99.90
11188;DHT22;5650;52.700;7.306;2023-11-22T14:57:48;5.40;99.90
11188;DHT22;5650;52.700;7.306;2023-11-22T15:00:17;5.40;99.90
11188;DHT22;5650;52.700;7.306;2023-11-22T15:02:50;5.40;99.90
11188;DHT22;5650;52.700;7.306;2023-11-22T15:05:27;5.40;99.90
11188;DHT22;5650;52.700;7.306;2023-11-22T15:07:54;5.40;99.90
11188;DHT22;5650;52.700;7.306;2023-11-22T15:10:27;5.30;99.90
11188;DHT22;5650;52.700;7.306;2023-11-22T15:12:56;5.40;99.90
11188;DHT22;5650;52.700;7.306;2023-11-22T15:15:37;5.40;99.90
11188;DHT22;5650;52.700;7.306;2023-11-22T15:18:04;5.30;99.90
11188;DHT22;5650;52.700;7.306;2023-11-22T15:20:32;5.30;99.90
11188;DHT22;5650;52.700;7.306;2023-11-22T15:23:05;5.30;99.90
11188;DHT22;5650;52.700;7.306;2023-11-22T15:25:32;5.30;99.90
11188;DHT22;5650;52.700;7.306;2023-11-22T15:28:04;5.30;99.90
11188;DHT22;5650;52.700;7.306;2023-11-22T15:30:32;5.30;99.90
11188;DHT22;5650;52.700;7.306;2023-11-22T15:33:03;5.30;99.90
11188;DHT22;5650;52.700;7.306;2023-11-22T15:35:33;5.30;99.90
11188;DHT22;5650;52.700;7.306;2023-11-22T15:38:04;5.30;99.90
11188;DHT22;5650;52.700;7.306;2023-11-22T15:40:31;5.30;99.90
11188;DHT22;5650;52.700;7.306;2023-11-22T15:42:58;5.30;99.90
11188;DHT22;5650;52.700;7.306;2023-11-22T15:45:34;5.40;99.90
11188;DHT22;5650;52.700;7.306;2023-11-22T15:48:03;6.10;99.90
11188;DHT22;5650;52.700;7.306;2023-11-22T15:50:30;6.50;99.90
11188;DHT22;5650;52.700;7.306;2023-11-22T15:52:58;6.90;99.90
11188;DHT22;5650;52.700;7.306;2023-11-22T15:55:31;7.20;99.90
11188;DHT22;5650;52.700;7.306;2023-11-22T15:58:01;7.40;99.90
11188;DHT22;5650;52.700;7.306;2023-11-22T16:00:30;7.40;99.90
11188;DHT22;5650;52.700;7.306;2023-11-22T16:02:57;7.90;99.90
11188;DHT22;5650;52.700;7.306;2023-11-22T16:05:27;7.70;99.90
11188;DHT22;5650;52.700;7.306;2023-11-22T16:07:58;7.50;99.90
11188;DHT22;5650;52.700;7.306;2023-11-22T16:10:32;7.30;99.90
11188;DHT22;5650;52.700;7.306;2023-11-22T16:13:02;7.20;99.90
11188;DHT22;5650;52.700;7.306;2023-11-22T16:15:31;7.60;99.90
11188;DHT22;5650;52.700;7.306;2023-11-22T16:17:58;7.40;99.90
11188;DHT22;5650;52.700;7.306;2023-11-22T16:20:25;7.20;99.90
11188;DHT22;5650;52.700;7.306;2023-11-22T16:22:52;7.10;99.90
11188;DHT22;5650;52.700;7.306;2023-11-22T16:25:19;7.00;99.90
11188;DHT22;5650;52.700;7.306;2023-11-22T16:27:49;6.90;99.90
11188;DHT22;5650;52.700;7.306;2023-11-22T16:30:17;6.90;99.90